createdAt,value
2018-04-14T00:01:10.042Z,9.40
2018-04-14T00:03:38.315Z,9.50
2018-04-14T00:06:06.579Z,9.40
2018-04-14T00:08:34.076Z,9.30
2018-04-14T00:11:01.574Z,9.30
2018-04-14T00:13:29.064Z,9.40
2018-04-14T00:15:57.332Z,9.20
2018-04-14T00:18:24.932Z,9.20
2018-04-14T00:20:52.462Z,9.20
2018-04-14T00:23:20.748Z,9.00
2018-04-14T00:25:48.323Z,9.00
2018-04-14T00:28:15.828Z,8.90
2018-04-14T00:30:43.411Z,9.10
2018-04-14T00:33:11.692Z,8.90
2018-04-14T00:35:39.952Z,8.80
2018-04-14T00:38:08.232Z,8.80
2018-04-14T00:40:36.508Z,8.70
2018-04-14T00:43:04.777Z,8.60
2018-04-14T00:45:33.035Z,8.70
2018-04-14T00:48:00.613Z,8.70
2018-04-14T00:50:28.894Z,9.00
2018-04-14T00:52:57.169Z,8.90
2018-04-14T00:55:25.436Z,8.70
2018-04-14T00:57:53.680Z,8.60
2018-04-14T01:00:21.963Z,8.50
2018-04-14T01:02:49.451Z,8.50
2018-04-14T01:05:17.730Z,8.40
2018-04-14T01:07:45.209Z,8.30
2018-04-14T01:10:12.771Z,8.50
2018-04-14T01:12:41.024Z,8.50
2018-04-14T01:15:08.537Z,8.50
2018-04-14T01:17:36.031Z,8.40
2018-04-14T01:20:04.314Z,8.40
2018-04-14T01:22:31.868Z,8.30
2018-04-14T01:24:59.368Z,8.20
2018-04-14T01:27:26.866Z,8.10
2018-04-14T01:29:55.151Z,8.10
2018-04-14T01:32:22.725Z,8.10
2018-04-14T01:34:50.258Z,8.10
2018-04-14T01:37:18.641Z,7.80
2018-04-14T01:39:46.897Z,7.80
2018-04-14T01:42:15.152Z,7.90
2018-04-14T01:44:42.675Z,7.80
2018-04-14T01:47:10.207Z,8.10
2018-04-14T01:49:37.706Z,8.00
2018-04-14T01:52:05.216Z,8.00
2018-04-14T01:54:33.488Z,8.10
2018-04-14T01:57:01.786Z,8.20
2018-04-14T01:59:29.270Z,8.20
2018-04-14T02:01:56.792Z,8.10
2018-04-14T02:04:24.291Z,7.80
2018-04-14T02:06:51.799Z,7.80
2018-04-14T02:09:19.307Z,7.70
2018-04-14T02:11:46.789Z,7.70
2018-04-14T02:14:15.062Z,7.80
2018-04-14T02:16:43.351Z,7.80
2018-04-14T02:19:11.621Z,7.70
2018-04-14T02:21:39.903Z,7.60
2018-04-14T02:24:08.144Z,7.60
2018-04-14T02:26:35.659Z,7.50
2018-04-14T02:29:03.165Z,7.40
2018-04-14T02:31:30.655Z,7.30
2018-04-14T02:33:58.198Z,7.30
2018-04-14T02:36:26.474Z,7.30
2018-04-14T02:38:54.864Z,7.40
2018-04-14T02:41:22.416Z,7.30
2018-04-14T02:43:49.899Z,7.50
2018-04-14T02:46:17.406Z,7.50
2018-04-14T02:48:44.933Z,7.50
2018-04-14T02:51:12.425Z,7.40
2018-04-14T02:53:40.697Z,7.50
2018-04-14T02:56:08.969Z,7.50
2018-04-14T02:58:37.244Z,7.50
2018-04-14T03:01:04.826Z,7.40
2018-04-14T03:03:32.324Z,7.40
2018-04-14T03:05:59.823Z,7.20
2018-04-14T03:08:28.101Z,7.40
2018-04-14T03:10:56.378Z,7.30
2018-04-14T03:13:24.647Z,7.40
2018-04-14T03:15:52.941Z,7.40
2018-04-14T03:18:20.501Z,7.30
2018-04-14T03:20:47.978Z,7.30
2018-04-14T03:23:15.597Z,7.20
2018-04-14T03:25:43.846Z,7.30
2018-04-14T03:28:11.340Z,7.30
2018-04-14T03:30:38.848Z,7.30
2018-04-14T03:33:06.446Z,7.20
2018-04-14T03:35:34.721Z,6.90
2018-04-14T03:38:02.971Z,6.80
2018-04-14T03:40:30.458Z,6.70
2018-04-14T03:42:58.755Z,6.80
2018-04-14T03:45:26.233Z,6.70
2018-04-14T03:47:53.724Z,6.90
2018-04-14T03:50:21.995Z,7.20
2018-04-14T03:52:49.485Z,7.10
2018-04-14T03:55:16.975Z,7.20
2018-04-14T03:57:44.479Z,7.20
2018-04-14T04:00:12.755Z,7.10
2018-04-14T04:02:41.007Z,7.10
2018-04-14T04:05:08.629Z,7.00
2018-04-14T04:07:36.141Z,7.20
2018-04-14T04:10:04.406Z,7.00
2018-04-14T04:12:31.908Z,7.00
2018-04-14T04:14:59.403Z,7.10
2018-04-14T04:17:27.004Z,7.00
2018-04-14T04:20:06.196Z,6.90
2018-04-14T04:22:45.776Z,6.80
2018-04-14T04:25:36.960Z,6.80
2018-04-14T04:28:04.473Z,6.90
2018-04-14T04:30:31.978Z,6.80
2018-04-14T04:33:00.247Z,6.90
2018-04-14T04:35:27.837Z,6.90
2018-04-14T04:37:55.367Z,7.00
2018-04-14T04:40:23.629Z,7.00
2018-04-14T04:42:51.137Z,6.90
2018-04-14T04:45:18.622Z,7.10
2018-04-14T04:47:46.117Z,7.10
2018-04-14T04:50:14.403Z,7.10
2018-04-14T04:52:42.643Z,7.10
2018-04-14T04:55:10.239Z,7.00
2018-04-14T04:57:37.792Z,7.30
2018-04-14T05:00:06.169Z,7.50
2018-04-14T05:02:34.410Z,7.70
2018-04-14T05:05:01.915Z,7.60
2018-04-14T05:07:29.395Z,7.70
2018-04-14T05:09:57.015Z,8.00
2018-04-14T05:12:25.292Z,8.70
2018-04-14T05:14:53.558Z,8.60
2018-04-14T05:17:21.824Z,8.60
2018-04-14T05:19:50.080Z,8.80
2018-04-14T05:22:17.603Z,8.70
2018-04-14T05:24:45.094Z,8.80
2018-04-14T05:27:12.595Z,8.90
2018-04-14T05:29:40.092Z,8.90
2018-04-14T05:32:07.578Z,9.10
2018-04-14T05:34:35.084Z,9.30
2018-04-14T05:37:02.622Z,9.20
2018-04-14T05:39:30.167Z,8.90
2018-04-14T05:41:57.662Z,8.80
2018-04-14T05:44:25.187Z,8.90
2018-04-14T05:46:52.672Z,9.10
2018-04-14T05:49:20.180Z,9.40
2018-04-14T05:51:48.456Z,9.80
2018-04-14T05:54:16.756Z,9.90
2018-04-14T05:56:44.299Z,9.80
2018-04-14T05:59:12.562Z,10.30
2018-04-14T06:01:40.842Z,10.60
2018-04-14T06:04:09.090Z,10.90
2018-04-14T06:06:36.578Z,10.80
2018-04-14T06:09:05.794Z,11.70
2018-04-14T06:11:34.052Z,11.80
2018-04-14T06:14:01.609Z,11.70
2018-04-14T06:16:29.988Z,13.50
2018-04-14T06:18:57.548Z,13.50
2018-04-14T06:21:25.040Z,14.70
2018-04-14T06:23:52.554Z,15.90
2018-04-14T06:26:20.843Z,17.50
2018-04-14T06:28:48.396Z,17.40
2018-04-14T06:31:15.899Z,18.40
2018-04-14T06:33:43.403Z,18.80
2018-04-14T06:36:11.673Z,18.90
2018-04-14T06:38:39.930Z,18.10
2018-04-14T06:41:07.424Z,18.10
2018-04-14T06:43:34.989Z,18.60
2018-04-14T06:46:02.510Z,19.40
2018-04-14T06:48:30.754Z,19.20
2018-04-14T06:50:58.256Z,19.10
2018-04-14T06:53:25.742Z,19.40
2018-04-14T06:55:53.276Z,20.30
2018-04-14T06:58:20.776Z,21.10
2018-04-14T07:00:48.257Z,21.40
2018-04-14T07:03:15.782Z,21.50
2018-04-14T07:05:43.286Z,21.60
2018-04-14T07:08:11.552Z,21.60
2018-04-14T07:10:39.808Z,21.40
2018-04-14T07:13:07.306Z,21.40
2018-04-14T07:15:34.828Z,21.20
2018-04-14T07:18:02.328Z,20.70
2018-04-14T07:20:29.836Z,20.80
2018-04-14T07:22:57.356Z,20.60
2018-04-14T07:25:24.996Z,20.40
2018-04-14T07:27:52.508Z,20.40
2018-04-14T07:30:20.006Z,20.70
2018-04-14T07:32:47.564Z,21.00
2018-04-14T07:35:15.119Z,21.10
2018-04-14T07:37:42.604Z,21.10
2018-04-14T07:40:10.115Z,20.70
2018-04-14T07:42:38.388Z,21.30
2018-04-14T07:45:06.774Z,21.40
2018-04-14T07:47:35.044Z,21.20
2018-04-14T07:50:03.297Z,21.00
2018-04-14T07:52:32.300Z,20.70
2018-04-14T07:55:00.562Z,20.70
2018-04-14T07:57:28.072Z,20.70
2018-04-14T07:59:55.608Z,20.30
2018-04-14T08:02:23.162Z,20.30
2018-04-14T08:04:51.424Z,20.30
2018-04-14T08:07:19.736Z,20.40
2018-04-14T08:09:47.294Z,20.30
2018-04-14T08:12:14.777Z,20.80
2018-04-14T08:14:42.287Z,20.90
2018-04-14T08:17:09.838Z,20.70
2018-04-14T08:19:38.097Z,20.70
2018-04-14T08:22:06.345Z,20.70
2018-04-14T08:24:33.942Z,20.60
2018-04-14T08:27:02.189Z,21.20
2018-04-14T08:29:29.711Z,21.10
2018-04-14T08:31:57.193Z,20.90
2018-04-14T08:34:24.793Z,20.80
2018-04-14T08:36:53.071Z,20.60
2018-04-14T08:39:20.570Z,20.50
2018-04-14T08:41:48.083Z,20.80
2018-04-14T08:44:16.340Z,21.20
2018-04-14T08:46:44.600Z,21.20
2018-04-14T08:49:12.103Z,21.20
2018-04-14T08:51:39.645Z,20.50
2018-04-14T08:54:07.135Z,20.10
2018-04-14T08:56:34.640Z,20.10
2018-04-14T08:59:02.882Z,20.00
2018-04-14T09:01:30.366Z,20.00
2018-04-14T09:03:57.968Z,20.40
2018-04-14T09:06:25.476Z,20.40
2018-04-14T09:08:52.996Z,20.40
2018-04-14T09:11:20.516Z,21.10
2018-04-14T09:13:48.764Z,20.90
2018-04-14T09:16:16.343Z,20.90
2018-04-14T09:18:44.635Z,20.40
2018-04-14T09:21:12.178Z,20.30
2018-04-14T09:23:40.439Z,20.40
2018-04-14T09:26:08.708Z,20.70
2018-04-14T09:28:36.247Z,20.70
2018-04-14T09:31:03.722Z,20.60
2018-04-14T09:33:31.321Z,20.20
2018-04-14T09:35:58.860Z,20.40
2018-04-14T09:38:26.341Z,21.10
2018-04-14T09:40:53.834Z,20.60
2018-04-14T09:43:21.324Z,20.30
2018-04-14T09:45:48.837Z,20.10
2018-04-14T09:48:16.334Z,20.70
2018-04-14T09:50:44.595Z,20.10
2018-04-14T09:53:12.086Z,20.10
2018-04-14T09:55:39.575Z,19.90
2018-04-14T09:58:07.095Z,20.90
2018-04-14T10:03:36.696Z,19.80
2018-04-14T10:06:04.953Z,20.40
2018-04-14T10:08:32.555Z,20.30
2018-04-14T10:11:00.094Z,21.00
2018-04-14T10:13:28.571Z,20.10
2018-04-14T10:15:56.842Z,20.40
2018-04-14T10:18:25.107Z,20.50
2018-04-14T10:20:52.612Z,20.50
2018-04-14T10:23:20.243Z,20.70
2018-04-14T10:25:48.499Z,20.90
2018-04-14T10:28:16.777Z,21.00
2018-04-14T10:30:46.059Z,21.40
2018-04-14T10:33:13.558Z,21.40
2018-04-14T10:35:41.111Z,20.60
2018-04-14T10:38:08.713Z,20.90
2018-04-14T10:40:36.178Z,20.70
2018-04-14T10:43:03.676Z,20.80
2018-04-14T10:45:31.979Z,21.60
2018-04-14T10:47:59.637Z,21.50
2018-04-14T10:50:27.165Z,20.60
2018-04-14T10:52:55.464Z,21.40
2018-04-14T10:55:23.025Z,21.40
2018-04-14T10:57:50.539Z,21.70
2018-04-14T11:00:18.789Z,20.70
2018-04-14T11:02:46.288Z,20.60
2018-04-14T11:05:14.571Z,20.90
2018-04-14T11:07:42.073Z,20.80
2018-04-14T11:10:09.554Z,20.70
2018-04-14T11:12:37.061Z,20.70
2018-04-14T11:15:04.568Z,20.80
2018-04-14T11:17:32.160Z,21.10
2018-04-14T11:19:59.692Z,21.30
2018-04-14T11:22:27.943Z,20.90
2018-04-14T11:24:56.256Z,20.30
2018-04-14T11:27:24.535Z,20.30
2018-04-14T11:29:52.030Z,20.30
2018-04-14T11:32:19.515Z,20.90
2018-04-14T11:34:47.099Z,20.90
2018-04-14T11:37:15.347Z,20.60
2018-04-14T11:39:42.862Z,20.50
2018-04-14T11:42:10.396Z,21.00
2018-04-14T11:44:37.888Z,21.50
2018-04-14T11:47:05.402Z,20.90
2018-04-14T11:49:33.676Z,20.30
2018-04-14T11:52:01.181Z,20.30
2018-04-14T11:54:28.671Z,20.40
2018-04-14T11:56:56.955Z,20.20
2018-04-14T11:59:25.211Z,20.70
2018-04-14T12:01:52.795Z,20.60
2018-04-14T12:04:20.356Z,20.60
2018-04-14T12:06:47.862Z,20.50
2018-04-14T12:09:15.349Z,20.40
2018-04-14T12:11:43.634Z,20.90
2018-04-14T12:14:11.882Z,20.70
2018-04-14T12:16:39.378Z,20.60
2018-04-14T12:19:06.930Z,20.20
2018-04-14T12:21:35.189Z,20.80
2018-04-14T12:24:03.460Z,20.60
2018-04-14T12:26:31.760Z,21.00
2018-04-14T12:28:59.302Z,20.90
2018-04-14T12:31:27.541Z,19.90
2018-04-14T12:33:55.047Z,19.90
2018-04-14T12:36:22.627Z,20.00
2018-04-14T12:38:50.156Z,19.80
2018-04-14T12:41:18.415Z,20.00
2018-04-14T12:43:46.668Z,20.30
2018-04-14T12:46:14.157Z,20.20
2018-04-14T12:48:42.453Z,20.50
2018-04-14T12:51:09.994Z,20.40
2018-04-14T12:53:37.481Z,20.10
2018-04-14T12:56:05.012Z,19.90
2018-04-14T12:58:32.567Z,19.50
2018-04-14T13:01:00.061Z,20.00
2018-04-14T13:03:27.584Z,20.10
2018-04-14T13:05:55.130Z,20.30
2018-04-14T13:08:23.419Z,20.20
2018-04-14T13:10:50.977Z,20.20
2018-04-14T13:13:18.478Z,20.10
2018-04-14T13:15:45.971Z,19.90
2018-04-14T13:18:14.265Z,20.20
2018-04-14T13:20:41.835Z,20.20
2018-04-14T13:23:09.347Z,20.30
2018-04-14T13:25:36.937Z,20.00
2018-04-14T13:28:04.440Z,20.00
2018-04-14T13:30:31.923Z,19.80
2018-04-14T13:32:59.506Z,19.70
2018-04-14T13:35:26.993Z,19.80
2018-04-14T13:37:54.490Z,19.50
2018-04-14T13:40:22.080Z,19.60
2018-04-14T13:42:49.626Z,19.60
2018-04-14T13:45:17.883Z,19.70
2018-04-14T13:47:45.466Z,19.70
2018-04-14T13:50:12.961Z,19.80
2018-04-14T13:52:40.437Z,19.60
2018-04-14T13:55:08.022Z,19.70
2018-04-14T13:57:36.412Z,19.90
2018-04-14T14:00:03.933Z,19.90
2018-04-14T14:02:31.417Z,19.50
2018-04-14T14:04:59.694Z,19.70
2018-04-14T14:07:28.036Z,19.40
2018-04-14T14:09:55.622Z,19.40
2018-04-14T14:12:23.885Z,19.50
2018-04-14T14:14:51.370Z,19.50
2018-04-14T14:17:18.919Z,19.60
2018-04-14T14:19:47.185Z,19.90
2018-04-14T14:22:15.456Z,20.00
2018-04-14T14:24:43.760Z,20.10
2018-04-14T14:27:11.304Z,20.10
2018-04-14T14:29:38.802Z,20.20
2018-04-14T14:32:06.304Z,20.00
2018-04-14T14:34:34.568Z,20.20
2018-04-14T14:37:02.056Z,20.10
2018-04-14T14:39:29.564Z,19.90
2018-04-14T14:41:57.068Z,20.20
2018-04-14T14:44:24.559Z,20.20
2018-04-14T14:46:52.043Z,20.50
2018-04-14T14:49:19.537Z,20.00
2018-04-14T14:51:47.026Z,20.20
2018-04-14T14:54:14.556Z,20.20
2018-04-14T14:56:42.074Z,19.80
2018-04-14T14:59:09.631Z,19.90
2018-04-14T15:01:37.107Z,19.90
2018-04-14T15:04:05.355Z,20.20
2018-04-14T15:06:32.860Z,20.10
2018-04-14T15:09:00.362Z,19.70
2018-04-14T15:11:27.851Z,19.50
2018-04-14T15:13:56.128Z,19.50
2018-04-14T15:16:24.407Z,19.70
2018-04-14T15:18:51.915Z,19.70
2018-04-14T15:21:19.427Z,19.90
2018-04-14T15:23:46.927Z,20.00
2018-04-14T15:26:14.488Z,19.80
2018-04-14T15:28:41.970Z,19.60
2018-04-14T15:31:10.248Z,19.60
2018-04-14T15:33:38.512Z,19.70
2018-04-14T15:36:06.019Z,19.70
2018-04-14T15:38:33.512Z,19.60
2018-04-14T15:41:01.018Z,19.30
2018-04-14T15:43:28.493Z,19.20
2018-04-14T15:45:55.979Z,19.10
2018-04-14T15:48:23.579Z,19.10
2018-04-14T15:50:51.134Z,19.20
2018-04-14T15:53:19.419Z,18.70
2018-04-14T15:55:46.894Z,18.60
2018-04-14T15:58:14.410Z,18.60
2018-04-14T16:00:42.672Z,18.70
2018-04-14T16:03:10.196Z,18.60
2018-04-14T16:05:37.686Z,18.60
2018-04-14T16:08:05.196Z,18.40
2018-04-14T16:10:32.696Z,18.30
2018-04-14T16:13:00.277Z,18.40
2018-04-14T16:15:28.550Z,18.50
2018-04-14T16:17:56.832Z,18.30
2018-04-14T16:20:24.392Z,18.30
2018-04-14T16:22:51.896Z,18.30
2018-04-14T16:25:19.503Z,18.20
2018-04-14T16:27:47.876Z,18.30
2018-04-14T16:30:16.147Z,18.40
2018-04-14T16:32:44.416Z,18.40
2018-04-14T16:35:12.677Z,18.20
2018-04-14T16:37:40.190Z,18.20
2018-04-14T16:40:08.363Z,18.10
2018-04-14T16:42:35.862Z,18.20
2018-04-14T16:45:03.374Z,18.40
2018-04-14T16:47:30.866Z,18.30
2018-04-14T16:49:58.478Z,18.20
2018-04-14T16:52:25.962Z,18.00
2018-04-14T16:54:53.580Z,18.00
2018-04-14T16:57:21.061Z,18.10
2018-04-14T16:59:48.537Z,18.10
2018-04-14T17:02:16.040Z,18.00
2018-04-14T17:04:44.303Z,18.10
2018-04-14T17:07:12.590Z,18.00
2018-04-14T17:09:40.830Z,17.80
2018-04-14T17:12:08.328Z,17.80
2018-04-14T17:14:35.870Z,17.70
2018-04-14T17:17:04.179Z,17.60
2018-04-14T17:19:31.715Z,17.50
2018-04-14T17:21:59.975Z,17.60
2018-04-14T17:24:28.229Z,17.60
2018-04-14T17:26:55.728Z,17.60
2018-04-14T17:29:23.266Z,17.60
2018-04-14T17:31:51.545Z,17.40
2018-04-14T17:34:19.832Z,17.30
2018-04-14T17:36:47.317Z,17.30
2018-04-14T17:39:14.806Z,17.30
2018-04-14T17:41:42.299Z,17.20
2018-04-14T17:44:10.551Z,17.30
2018-04-14T17:46:38.824Z,17.10
2018-04-14T17:49:06.318Z,17.00
2018-04-14T17:51:33.809Z,17.00
2018-04-14T17:54:01.321Z,17.10
2018-04-14T17:56:28.882Z,17.00
2018-04-14T17:58:56.392Z,16.90
2018-04-14T18:01:23.865Z,16.90
2018-04-14T18:03:51.346Z,16.80
2018-04-14T18:06:18.897Z,16.80
2018-04-14T18:08:47.159Z,16.70
2018-04-14T18:11:15.433Z,16.70
2018-04-14T18:13:43.688Z,16.80
2018-04-14T18:16:11.192Z,16.80
2018-04-14T18:18:38.721Z,16.80
2018-04-14T18:21:06.998Z,16.60
2018-04-14T18:23:34.518Z,16.50
2018-04-14T18:26:02.044Z,16.50
2018-04-14T18:28:29.525Z,16.50
2018-04-14T18:30:57.129Z,16.50
2018-04-14T18:33:25.400Z,16.40
2018-04-14T18:35:53.678Z,16.40
2018-04-14T18:38:21.964Z,16.30
2018-04-14T18:40:50.202Z,16.20
2018-04-14T18:43:17.803Z,16.20
2018-04-14T18:45:45.308Z,16.20
2018-04-14T18:48:12.906Z,16.10
2018-04-14T18:50:41.164Z,16.00
2018-04-14T18:53:09.426Z,16.00
2018-04-14T18:55:36.948Z,15.90
2018-04-14T18:58:04.447Z,16.00
2018-04-14T19:00:31.953Z,16.00
2018-04-14T19:02:59.443Z,15.90
2018-04-14T19:05:27.099Z,16.00
2018-04-14T19:07:54.604Z,15.90
2018-04-14T19:10:22.115Z,15.80
2018-04-14T19:12:49.627Z,15.80
2018-04-14T19:15:17.110Z,15.90
2018-04-14T19:17:45.366Z,15.70
2018-04-14T19:20:12.851Z,15.60
2018-04-14T19:22:40.463Z,15.60
2018-04-14T19:25:07.947Z,15.50
2018-04-14T19:27:35.459Z,15.40
2018-04-14T19:30:03.750Z,15.50
2018-04-14T19:32:32.067Z,15.30
2018-04-14T19:34:59.560Z,15.30
2018-04-14T19:37:27.073Z,15.30
2018-04-14T19:39:54.576Z,15.30
2018-04-14T19:42:22.863Z,15.20
2018-04-14T19:44:51.140Z,15.10
2018-04-14T19:47:19.391Z,15.10
2018-04-14T19:49:46.877Z,15.10
2018-04-14T19:52:15.137Z,15.00
2018-04-14T19:54:43.444Z,15.10
2018-04-14T19:57:10.951Z,15.00
2018-04-14T19:59:38.533Z,15.00
2018-04-14T20:02:06.836Z,14.80
2018-04-14T20:04:34.323Z,14.80
2018-04-14T20:07:01.862Z,14.70
2018-04-14T20:09:29.346Z,14.70
2018-04-14T20:11:56.822Z,14.70
2018-04-14T20:14:25.110Z,14.70
2018-04-14T20:16:53.392Z,14.70
2018-04-14T20:19:20.882Z,14.70
2018-04-14T20:21:48.373Z,14.80
2018-04-14T20:24:15.850Z,14.90
2018-04-14T20:26:44.111Z,14.90
2018-04-14T20:29:11.606Z,14.80
2018-04-14T20:31:39.128Z,14.70
2018-04-14T20:34:07.391Z,14.50
2018-04-14T20:36:34.868Z,14.50
2018-04-14T20:39:03.136Z,14.70
2018-04-14T20:41:31.418Z,14.60
2018-04-14T20:43:59.678Z,14.70
2018-04-14T20:46:27.167Z,14.60
2018-04-14T20:48:55.044Z,14.60
2018-04-14T20:51:22.597Z,14.60
2018-04-14T20:53:50.141Z,14.40
2018-04-14T20:56:17.638Z,14.60
2018-04-14T20:58:45.129Z,14.90
2018-04-14T21:01:13.410Z,15.20
2018-04-14T21:03:41.707Z,15.20
2018-04-14T21:06:09.186Z,15.20
2018-04-14T21:08:36.695Z,15.40
2018-04-14T21:11:04.952Z,15.10
2018-04-14T21:13:32.454Z,15.10
2018-04-14T21:15:59.954Z,14.70
2018-04-14T21:18:27.443Z,14.60
2018-04-14T21:20:55.699Z,14.70
2018-04-14T21:23:23.282Z,14.60
2018-04-14T21:25:51.663Z,14.30
2018-04-14T21:28:19.142Z,14.20
2018-04-14T21:30:46.643Z,14.20
2018-04-14T21:33:14.176Z,14.30
2018-04-14T21:35:41.671Z,14.10
2018-04-14T21:38:09.253Z,14.10
2018-04-14T21:40:36.808Z,13.90
2018-04-14T21:43:05.068Z,14.00
2018-04-14T21:45:33.324Z,13.80
2018-04-14T21:48:00.812Z,13.80
2018-04-14T21:50:28.311Z,13.80
2018-04-14T21:52:55.814Z,13.80
2018-04-14T21:55:24.140Z,13.80
2018-04-14T21:57:51.657Z,13.70
2018-04-14T22:00:19.915Z,13.80
2018-04-14T22:02:48.180Z,13.80
2018-04-14T22:05:15.686Z,13.70
2018-04-14T22:07:43.211Z,13.80
2018-04-14T22:10:11.502Z,13.80
2018-04-14T22:12:39.027Z,13.80
2018-04-14T22:15:06.515Z,13.70
2018-04-14T22:17:34.061Z,13.70
2018-04-14T22:20:02.323Z,13.40
2018-04-14T22:22:30.577Z,13.40
2018-04-14T22:24:58.184Z,13.40
2018-04-14T22:27:25.666Z,13.20
2018-04-14T22:29:53.164Z,13.20
2018-04-14T22:32:20.671Z,13.10
2018-04-14T22:34:48.154Z,13.10
2018-04-14T22:37:15.758Z,13.10
2018-04-14T22:39:44.140Z,13.10
2018-04-14T22:42:11.649Z,13.10
2018-04-14T22:44:39.126Z,13.10
2018-04-14T22:47:06.712Z,13.10
2018-04-14T22:49:34.268Z,12.90
2018-04-14T22:52:01.751Z,12.90
2018-04-14T22:54:29.279Z,12.70
2018-04-14T22:56:56.842Z,12.80
2018-04-14T22:59:24.385Z,12.80
2018-04-14T23:01:52.626Z,12.70
2018-04-14T23:04:20.117Z,12.60
2018-04-14T23:06:48.359Z,12.60
2018-04-14T23:09:15.846Z,12.50
2018-04-14T23:11:44.096Z,12.30
2018-04-14T23:14:11.604Z,12.30
2018-04-14T23:16:39.165Z,12.20
2018-04-14T23:19:06.693Z,12.10
2018-04-14T23:21:34.953Z,12.00
2018-04-14T23:24:03.202Z,11.90
2018-04-14T23:26:30.702Z,11.90
2018-04-14T23:28:58.970Z,11.90
2018-04-14T23:31:27.359Z,11.90
2018-04-14T23:33:54.855Z,11.80
2018-04-14T23:36:22.360Z,11.80
2018-04-14T23:38:50.710Z,11.60
2018-04-14T23:41:18.200Z,11.50
2018-04-14T23:43:45.759Z,11.50
2018-04-14T23:46:13.258Z,11.50
2018-04-14T23:48:40.761Z,11.40
2018-04-14T23:51:09.033Z,11.40
2018-04-14T23:53:37.328Z,11.30
2018-04-14T23:56:04.901Z,11.20
